createdAt,value
2022-08-19T00:04:35.826Z,41.50
2022-08-19T00:09:38.635Z,41.20
2022-08-19T00:14:43.277Z,44.45
2022-08-19T00:19:46.049Z,47.45
2022-08-19T00:24:49.608Z,46.70
2022-08-19T00:29:55.271Z,44.78
2022-08-19T00:34:58.184Z,47.83
2022-08-19T00:40:00.929Z,40.67
2022-08-19T00:45:12.490Z,41.30
2022-08-19T00:50:18.709Z,41.90
2022-08-19T00:55:24.417Z,43.13
2022-08-19T01:00:29.691Z,46.17
2022-08-19T01:05:32.790Z,45.95
2022-08-19T01:10:40.998Z,47.85
2022-08-19T01:15:48.848Z,46.20
2022-08-19T01:20:53.932Z,46.88
2022-08-19T01:25:57.993Z,53.00
2022-08-19T01:31:01.817Z,53.13
2022-08-19T01:36:13.689Z,43.97
2022-08-19T01:41:19.459Z,43.53
2022-08-19T01:46:24.907Z,55.08
2022-08-19T01:51:28.309Z,56.47
2022-08-19T01:56:32.911Z,47.28
2022-08-19T02:01:35.903Z,48.55
2022-08-19T02:06:39.195Z,46.88
2022-08-19T02:11:43.415Z,42.20
2022-08-19T02:16:46.153Z,44.88
2022-08-19T02:21:48.859Z,42.72
2022-08-19T02:26:53.173Z,42.45
2022-08-19T02:31:55.899Z,44.00
2022-08-19T02:37:01.900Z,51.03
2022-08-19T02:42:08.153Z,49.30
2022-08-19T02:47:11.961Z,50.22
2022-08-19T02:52:14.968Z,41.30
2022-08-19T02:57:19.041Z,58.22
2022-08-19T03:02:22.170Z,48.05
2022-08-19T03:07:24.863Z,48.20
2022-08-19T03:12:29.083Z,48.55
2022-08-19T03:17:31.891Z,54.22
2022-08-19T03:22:34.629Z,57.28
2022-08-19T03:27:38.688Z,58.78
2022-08-19T03:32:41.730Z,55.00
2022-08-19T03:37:48.267Z,55.50
2022-08-19T03:42:52.542Z,64.57
2022-08-19T03:47:55.328Z,54.53
2022-08-19T03:52:58.045Z,61.75
2022-08-19T03:58:02.105Z,57.42
2022-08-19T04:03:04.939Z,52.88
2022-08-19T04:08:10.792Z,60.67
2022-08-19T04:13:19.169Z,60.13
2022-08-19T04:18:21.869Z,58.92
2022-08-19T04:23:24.942Z,61.30
2022-08-19T04:28:29.868Z,60.45
2022-08-19T04:33:32.723Z,58.20
2022-08-19T04:38:35.562Z,65.07
2022-08-19T04:43:40.496Z,63.80
2022-08-19T04:48:49.435Z,58.38
2022-08-19T04:53:53.354Z,63.45
2022-08-19T04:58:58.503Z,57.47
2022-08-19T05:04:02.481Z,59.33
2022-08-19T05:09:07.334Z,61.53
2022-08-19T05:14:13.318Z,54.97
2022-08-19T05:19:33.691Z,61.80
2022-08-19T05:24:44.051Z,56.65
2022-08-19T05:29:55.469Z,59.58
2022-08-19T05:34:58.842Z,54.33
2022-08-19T05:40:02.376Z,58.58
2022-08-19T05:45:07.801Z,56.03
2022-08-19T05:50:11.477Z,54.45
2022-08-19T05:55:14.421Z,53.53
2022-08-19T06:00:24.032Z,59.80
2022-08-19T06:05:27.480Z,59.97
2022-08-19T06:10:30.970Z,56.28
2022-08-19T06:15:35.864Z,54.50
2022-08-19T06:20:55.078Z,57.00
2022-08-19T06:25:58.665Z,52.70
2022-08-19T06:31:08.230Z,55.33
2022-08-19T06:36:19.367Z,55.40
2022-08-19T06:41:22.111Z,57.10
2022-08-19T06:46:27.252Z,62.40
2022-08-19T06:56:35.593Z,60.28
2022-08-19T07:01:42.362Z,56.53
2022-08-19T07:06:45.727Z,57.53
2022-08-19T07:11:58.138Z,59.45
2022-08-19T07:17:02.241Z,56.20
2022-08-19T07:22:07.418Z,60.28
2022-08-19T07:27:16.978Z,55.53
2022-08-19T07:32:21.096Z,60.00
2022-08-19T07:37:23.906Z,52.65
2022-08-19T07:42:26.692Z,62.80
2022-08-19T07:47:48.968Z,64.38
2022-08-19T07:52:54.814Z,66.22
2022-08-19T07:57:57.648Z,70.80
2022-08-19T08:03:01.873Z,68.50
2022-08-19T08:08:37.211Z,65.55
2022-08-19T08:13:47.272Z,63.83
2022-08-19T08:24:31.558Z,67.97
2022-08-19T08:29:35.336Z,62.03
2022-08-19T08:34:39.474Z,54.42
2022-08-19T08:39:42.287Z,64.05
2022-08-19T08:50:06.711Z,65.50
2022-08-19T08:55:13.225Z,55.97
2022-08-19T09:00:21.858Z,49.60
2022-08-19T09:05:39.499Z,48.55
2022-08-19T09:10:55.309Z,47.55
2022-08-19T09:16:03.263Z,39.90
2022-08-19T09:21:08.682Z,36.80
2022-08-19T09:26:16.327Z,34.10
2022-08-19T09:31:21.682Z,33.13
2022-08-19T09:36:31.269Z,27.45
2022-08-19T09:41:37.798Z,25.48
2022-08-19T09:46:40.671Z,23.60
2022-08-19T09:51:46.882Z,23.00
2022-08-19T09:56:54.545Z,18.50
2022-08-19T10:02:04.002Z,19.10
2022-08-19T10:07:15.337Z,16.23
2022-08-19T10:12:20.157Z,14.38
2022-08-19T10:17:26.423Z,14.80
2022-08-19T10:22:31.653Z,14.02
2022-08-19T10:27:34.501Z,11.02
2022-08-19T10:32:38.554Z,10.88
2022-08-19T10:37:57.047Z,13.23
2022-08-19T10:43:02.852Z,11.65
2022-08-19T10:48:05.877Z,11.52
2022-08-19T10:53:10.438Z,14.90
2022-08-19T10:58:14.885Z,9.95
2022-08-19T11:03:17.741Z,13.73
2022-08-19T11:08:22.967Z,11.43
2022-08-19T11:18:30.084Z,7.47
2022-08-19T11:23:34.275Z,21.98
2022-08-19T11:28:37.419Z,10.50
2022-08-19T11:33:40.561Z,15.32
2022-08-19T11:38:46.890Z,18.48
2022-08-19T11:43:49.753Z,7.10
2022-08-19T11:48:53.086Z,10.70
2022-08-19T11:53:58.539Z,8.60
2022-08-19T11:59:02.743Z,8.55
2022-08-19T12:04:06.336Z,10.65
2022-08-19T12:09:11.989Z,9.43
2022-08-19T12:14:16.842Z,12.63
2022-08-19T12:19:22.591Z,9.90
2022-08-19T12:24:26.905Z,10.70
2022-08-19T12:29:30.277Z,6.57
2022-08-19T12:34:34.477Z,7.53
2022-08-19T12:39:40.828Z,6.78
2022-08-19T12:44:45.055Z,8.68
2022-08-19T12:49:53.068Z,12.73
2022-08-19T12:54:59.537Z,8.65
2022-08-19T13:00:07.059Z,8.27
2022-08-19T13:05:13.150Z,4.45
2022-08-19T13:10:20.505Z,6.63
2022-08-19T13:15:24.715Z,8.73
2022-08-19T13:20:27.902Z,7.80
2022-08-19T13:25:32.001Z,12.68
2022-08-19T13:30:52.780Z,5.18
2022-08-19T13:36:01.458Z,7.88
2022-08-19T13:41:12.153Z,11.15
2022-08-19T13:46:16.044Z,9.85
2022-08-19T13:51:19.707Z,9.85
2022-08-19T14:01:31.180Z,11.13
2022-08-19T14:06:34.049Z,10.25
2022-08-19T14:11:38.332Z,10.70
2022-08-19T14:16:41.041Z,8.90
2022-08-19T14:21:43.769Z,7.40
2022-08-19T14:26:47.862Z,5.95
2022-08-19T14:31:50.622Z,5.35
2022-08-19T14:36:53.667Z,10.30
2022-08-19T14:41:58.245Z,8.68
2022-08-19T14:47:01.066Z,11.48
2022-08-19T14:52:06.031Z,10.23
2022-08-19T14:57:13.506Z,14.02
2022-08-19T15:02:33.838Z,10.60
2022-08-19T15:07:37.293Z,6.10
2022-08-19T15:12:41.787Z,9.50
2022-08-19T15:17:46.694Z,8.15
2022-08-19T15:22:49.466Z,5.35
2022-08-19T15:27:53.680Z,4.75
2022-08-19T15:32:57.771Z,4.68
2022-08-19T15:38:00.611Z,3.80
2022-08-19T15:43:04.763Z,6.35
2022-08-19T15:48:07.652Z,7.35
2022-08-19T15:53:11.605Z,3.00
2022-08-19T15:58:35.312Z,3.70
2022-08-19T16:03:55.836Z,6.35
2022-08-19T16:09:01.908Z,3.42
2022-08-19T16:14:09.189Z,4.93
2022-08-19T16:19:13.359Z,7.65
2022-08-19T16:24:19.293Z,11.65
2022-08-19T16:29:33.832Z,10.52
2022-08-19T16:34:38.906Z,8.13
2022-08-19T16:39:43.642Z,11.48
2022-08-19T16:44:48.581Z,8.20
2022-08-19T16:49:52.990Z,18.43
2022-08-19T16:54:58.110Z,5.60
2022-08-19T17:00:05.219Z,16.27
2022-08-19T17:05:10.041Z,20.02
2022-08-19T17:10:12.830Z,10.70
2022-08-19T17:15:16.942Z,20.38
2022-08-19T17:20:20.299Z,12.52
2022-08-19T17:25:23.168Z,14.43
2022-08-19T17:30:27.440Z,14.57
2022-08-19T17:35:30.291Z,18.40
2022-08-19T17:40:33.261Z,14.60
2022-08-19T17:45:38.704Z,13.55
2022-08-19T17:50:41.642Z,16.40
2022-08-19T17:55:44.937Z,16.80
2022-08-19T18:00:54.418Z,19.52
2022-08-19T18:05:58.544Z,23.77
2022-08-19T18:11:01.522Z,12.80
2022-08-19T18:16:10.878Z,11.55
2022-08-19T18:21:13.781Z,14.00
2022-08-19T18:26:16.676Z,14.43
2022-08-19T18:31:21.054Z,14.32
2022-08-19T18:36:50.181Z,11.00
2022-08-19T18:42:04.290Z,14.73
2022-08-19T18:47:26.175Z,12.98
2022-08-19T18:52:28.931Z,8.80
2022-08-19T18:57:31.638Z,14.15
2022-08-19T19:02:39.879Z,14.18
2022-08-19T19:07:43.934Z,10.40
2022-08-19T19:12:47.159Z,14.00
2022-08-19T19:17:51.278Z,11.85
2022-08-19T19:22:55.948Z,9.82
2022-08-19T19:28:01.194Z,13.43
2022-08-19T19:33:05.878Z,6.68
2022-08-19T19:38:08.587Z,8.25
2022-08-19T19:43:11.301Z,11.82
2022-08-19T19:48:16.497Z,9.82
2022-08-19T19:53:19.270Z,7.20
2022-08-19T19:58:28.887Z,11.00
2022-08-19T20:03:33.422Z,4.45
2022-08-19T20:08:54.738Z,3.92
2022-08-19T20:13:57.515Z,6.78
2022-08-19T20:19:03.454Z,10.63
2022-08-19T20:24:09.905Z,12.48
2022-08-19T20:29:13.465Z,6.57
2022-08-19T20:34:37.421Z,11.73
2022-08-19T20:39:40.285Z,9.15
2022-08-19T20:44:43.047Z,5.72
2022-08-19T20:49:47.274Z,9.70
2022-08-19T20:54:50.154Z,9.95
2022-08-19T20:59:52.891Z,6.82
2022-08-19T21:04:59.099Z,7.13
2022-08-19T21:10:03.189Z,7.28
2022-08-19T21:15:08.639Z,4.82
2022-08-19T21:20:12.844Z,6.25
2022-08-19T21:25:17.159Z,7.05
2022-08-19T21:30:20.030Z,12.68
2022-08-19T21:35:24.965Z,5.28
2022-08-19T21:40:28.305Z,18.58
2022-08-19T21:45:31.321Z,5.65
2022-08-19T21:50:35.897Z,13.65
2022-08-19T21:55:39.702Z,5.88
2022-08-19T22:00:42.556Z,4.50
2022-08-19T22:05:46.669Z,6.43
2022-08-19T22:10:50.085Z,13.63
2022-08-19T22:15:52.918Z,8.55
2022-08-19T22:20:57.109Z,7.80
2022-08-19T22:25:59.959Z,12.13
2022-08-19T22:31:03.446Z,7.60
2022-08-19T22:36:08.678Z,8.32
2022-08-19T22:41:11.874Z,8.13
2022-08-19T22:46:17.398Z,7.13
2022-08-19T22:51:39.472Z,16.65
2022-08-19T22:56:43.337Z,5.47
2022-08-19T23:01:46.998Z,6.55
2022-08-19T23:06:52.768Z,7.40
2022-08-19T23:11:55.561Z,7.63
2022-08-19T23:16:59.231Z,5.60
2022-08-19T23:22:05.162Z,6.82
2022-08-19T23:27:25.745Z,5.53
2022-08-19T23:32:29.257Z,4.53
2022-08-19T23:37:33.355Z,5.38
2022-08-19T23:42:36.329Z,6.80
2022-08-19T23:47:40.589Z,7.47
2022-08-19T23:52:47.863Z,3.40
2022-08-19T23:57:50.839Z,8.67
